Data for 02/19/2018

Time Sea-Level Adjusted Pressure Absolute Pressure Temperature Relative Humidity Dew Point   
(mb) (inHg) (mb) (inHg) (C) (F) (%) (C) (F)
00:05 1010 29.83 840 24.81 -17.9 -0.2 63 -23.4 -10
00:10 1010 29.83 840 24.81 -17.9 -0.1 63 -23.3 -9.9
00:15 1010 29.83 840 24.81 -17.9 -0.1 64 -23 -9.5
00:20 1010 29.83 840 24.81 -17.9 -0.2 64 -23.1 -9.6
00:25 1011 29.85 840 24.81 -17.9 -0.2 65 -23 -9.3
00:30 1011 29.85 840 24.81 -18 -0.4 67 -22.7 -8.9
00:35 1010 29.83 840 24.81 -18.1 -0.6 68 -22.6 -8.7
00:40 1010 29.83 840 24.81 -18.3 -0.9 70 -22.5 -8.6
00:45 1011 29.85 840 24.81 -18.3 -1 71 -22.3 -8.2
00:50 1011 29.85 840 24.81 -18.4 -1.1 71 -22.4 -8.3
00:55 1010 29.83 840 24.81 -18.5 -1.3 73 -22.2 -8
01:00 1011 29.85 840 24.81 -18.6 -1.4 73 -22.3 -8.1
01:05 1011 29.85 840 24.81 -18.6 -1.5 74 -22.2 -7.9
01:10 1011 29.85 840 24.81 -18.6 -1.5 72 -22.5 -8.5
01:15 1011 29.85 840 24.81 -18.7 -1.7 73 -22.4 -8.2
01:20 1011 29.85 840 24.81 -18.8 -1.8 73 -22.5 -8.5
01:25 1010 29.83 839 24.78 -18.8 -1.8 73 -22.5 -8.5
01:30 1010 29.83 839 24.78 -18.8 -1.9 73 -22.5 -8.5
01:35 1010 29.83 840 24.81 -18.8 -1.9 74 -22.4 -8.3
01:40 1011 29.85 840 24.81 -18.8 -1.9 74 -22.4 -8.4
01:45 1011 29.85 840 24.81 -18.9 -1.9 74 -22.4 -8.3
01:50 1011 29.85 840 24.81 -18.9 -2 74 -22.5 -8.4
01:55 1011 29.85 840 24.81 -18.9 -2 74 -22.5 -8.4
02:00 1011 29.85 840 24.81 -18.9 -2.1 73 -22.6 -8.7
02:05 1010 29.83 840 24.81 -19 -2.1 72 -22.8 -9
02:10 1010 29.83 840 24.81 -19 -2.1 74 -22.6 -8.6
02:15 1010 29.83 840 24.81 -19 -2.1 73 -22.7 -8.9
02:20 1010 29.83 840 24.81 -19 -2.2 74 -22.5 -8.6
02:25 1010 29.83 840 24.81 -19 -2.2 74 -22.5 -8.5
02:30 1010 29.83 840 24.81 -19 -2.2 74 -22.6 -8.7
02:35 1011 29.85 840 24.81 -18.9 -2.1 73 -22.6 -8.7
02:40 1011 29.85 840 24.81 -18.9 -2 73 -22.6 -8.7
02:45 1011 29.85 840 24.81 -19 -2.1 73 -22.6 -8.7
02:50 1011 29.85 840 24.81 -19 -2.2 72 -22.9 -9.1
02:55 1011 29.85 840 24.81 -19.1 -2.4 71 -23.1 -9.5
03:00 1011 29.85 840 24.81 -19.2 -2.5 72 -23.1 -9.6
03:05 1011 29.85 840 24.81 -19.2 -2.5 71 -23.3 -9.9
03:10 1011 29.85 840 24.81 -19.2 -2.6 69 -23.7 -10.6
03:15 1011 29.85 840 24.81 -19.3 -2.8 67 -24.1 -11.3
03:20 1011 29.85 840 24.81 -19.4 -2.9 66 -24.2 -11.5
03:25 1011 29.85 840 24.81 -19.4 -3 68 -24 -11.2
03:30 1011 29.85 840 24.81 -19.5 -3.2 69 -23.8 -10.8
03:35 1011 29.85 840 24.81 -19.6 -3.3 70 -23.8 -10.9
03:40 1011 29.85 840 24.81 -19.6 -3.3 71 -23.7 -10.6
03:45 1011 29.85 840 24.81 -19.7 -3.5 71 -23.7 -10.6
03:50 1011 29.85 840 24.81 -19.7 -3.5 68 -24.2 -11.6
03:55 1011 29.85 840 24.81 -19.7 -3.5 67 -24.3 -11.8
04:00 1011 29.85 840 24.81 -19.8 -3.6 67 -24.4 -11.9
04:05 1011 29.85 840 24.81 -19.8 -3.7 67 -24.4 -11.9
04:10 1011 29.85 840 24.81 -19.8 -3.6 66 -24.7 -12.4
04:15 1010 29.83 839 24.78 -19.8 -3.7 66 -24.7 -12.5
04:20 1010 29.83 839 24.78 -19.8 -3.7 66 -24.7 -12.5
04:25 1010 29.83 840 24.81 -19.8 -3.7 65 -24.8 -12.7
04:30 1010 29.83 840 24.81 -19.9 -3.7 64 -25 -13
04:35 1011 29.85 840 24.81 -19.9 -3.8 65 -25 -12.9
04:40 1011 29.85 840 24.81 -20 -3.9 64 -25.1 -13.2
04:45 1011 29.85 840 24.81 -20 -3.9 64 -25.1 -13.1
04:50 1011 29.85 840 24.81 -20 -4 65 -25 -13.1
04:55 1011 29.85 840 24.81 -20 -4.1 65 -25 -13
05:00 1011 29.85 840 24.81 -20.1 -4.1 66 -24.9 -12.9
05:05 1011 29.85 840 24.81 -20.1 -4.2 66 -24.9 -12.7
05:10 1011 29.85 840 24.81 -20.1 -4.2 67 -24.8 -12.7
05:15 1011 29.85 840 24.81 -20.2 -4.3 67 -24.9 -12.8
05:20 1011 29.85 841 24.83 -20.2 -4.3 66 -25 -13
05:25 1011 29.85 841 24.83 -20.2 -4.4 66 -24.9 -12.9
05:30 1011 29.85 841 24.83 -20.3 -4.5 67 -24.9 -12.9
05:35 1011 29.85 841 24.83 -20.4 -4.6 67 -24.9 -12.9
05:40 1011 29.85 840 24.81 -20.4 -4.7 67 -25 -13.1
05:45 1011 29.85 840 24.81 -20.5 -4.8 66 -25.2 -13.3
05:50 1011 29.85 841 24.83 -20.5 -4.9 66 -25.3 -13.5
05:55 1011 29.85 841 24.83 -20.5 -5 66 -25.4 -13.7
06:00 1011 29.85 841 24.83 -20.6 -5 65 -25.5 -13.9
06:05 1011 29.85 840 24.81 -20.6 -5.1 65 -25.6 -14.1
06:10 1011 29.85 840 24.81 -20.6 -5.2 65 -25.6 -14
06:15 1011 29.85 840 24.81 -20.7 -5.2 65 -25.6 -14.1
06:20 1011 29.85 840 24.81 -20.7 -5.2 65 -25.6 -14
06:25 1011 29.85 841 24.83 -20.8 -5.4 66 -25.6 -14.1
06:30 1011 29.85 841 24.83 -20.8 -5.5 66 -25.6 -14.2
06:35 1012 29.88 841 24.83 -20.9 -5.5 66 -25.7 -14.3
06:40 1012 29.88 841 24.83 -20.9 -5.6 66 -25.7 -14.3
06:45 1012 29.88 841 24.83 -20.9 -5.7 66 -25.8 -14.4
06:50 1012 29.88 841 24.83 -21 -5.7 65 -25.9 -14.6
06:55 1012 29.88 841 24.83 -21 -5.8 65 -26 -14.7
07:00 1012 29.88 841 24.83 -21.1 -5.9 65 -26 -14.8
07:05 1012 29.88 841 24.83 -21.1 -5.9 66 -25.8 -14.4
07:10 1012 29.88 841 24.83 -21.2 -6.1 67 -25.7 -14.3
07:15 1012 29.88 841 24.83 -21.2 -6.1 67 -25.8 -14.5
07:20 1012 29.88 841 24.83 -21.2 -6.2 67 -25.8 -14.5
07:25 1012 29.88 841 24.83 -21.2 -6.2 67 -25.9 -14.6
07:30 1012 29.88 841 24.83 -21.2 -6.2 66 -25.9 -14.7
07:35 1012 29.88 841 24.83 -21.3 -6.3 66 -26.1 -14.9
07:40 1012 29.88 841 24.83 -21.3 -6.4 66 -26.1 -14.9
07:45 1012 29.88 841 24.83 -21.3 -6.4 66 -26.1 -14.9
07:50 1012 29.88 841 24.83 -21.4 -6.5 66 -26.1 -15
07:55 1012 29.88 841 24.83 -21.4 -6.5 66 -26.2 -15.1
08:00 1012 29.88 841 24.83 -21.3 -6.3 65 -26.2 -15.2
08:05 1012 29.88 841 24.83 -21.2 -6.1 65 -26.2 -15.2
08:10 1012 29.88 841 24.83 -21.1 -5.9 65 -26.1 -15
08:15 1012 29.88 842 24.86 -21 -5.8 64 -26.2 -15.1
08:20 1012 29.88 842 24.86 -20.9 -5.5 64 -26 -14.7
08:25 1012 29.88 841 24.83 -20.9 -5.6 65 -25.8 -14.5
08:30 1012 29.88 841 24.83 -20.7 -5.3 64 -25.8 -14.5
08:35 1012 29.88 841 24.83 -20.6 -5 62 -26 -14.8
08:40 1012 29.88 841 24.83 -20.6 -5 61 -26.2 -15.2
08:45 1012 29.88 841 24.83 -20.4 -4.8 60 -26.3 -15.3
08:50 1012 29.88 841 24.83 -20.5 -4.8 60 -26.3 -15.4
08:55 1012 29.88 841 24.83 -20.3 -4.5 59 -26.3 -15.3
09:00 1012 29.88 841 24.83 -20.1 -4.1 59 -26.2 -15.2
09:05 1012 29.88 841 24.83 -20.2 -4.4 60 -26.1 -15
09:10 1012 29.88 841 24.83 -20 -4.1 59 -26.2 -15.2
09:15 1012 29.88 841 24.83 -19.8 -3.7 57 -26.4 -15.4
09:20 1012 29.88 842 24.86 -19.9 -3.8 58 -26.3 -15.3
09:25 1012 29.88 842 24.86 -19.9 -3.9 58 -26.2 -15.1
09:30 1012 29.88 841 24.83 -19.4 -2.9 55 -26.3 -15.4
09:35 1012 29.88 841 24.83 -19.8 -3.6 57 -26.2 -15.1
09:40 1012 29.88 842 24.86 -19.8 -3.7 56 -26.5 -15.7
09:45 1012 29.88 841 24.83 -19.7 -3.5 56 -26.4 -15.6
09:50 1012 29.88 841 24.83 -19.7 -3.5 56 -26.4 -15.5
09:55 1012 29.88 841 24.83 -19.6 -3.3 55 -26.6 -15.8
10:00 1012 29.88 841 24.83 -19.7 -3.4 55 -26.5 -15.6
10:05 1012 29.88 841 24.83 -19.7 -3.5 56 -26.4 -15.5
10:10 1012 29.88 841 24.83 -19.4 -3 55 -26.4 -15.5
10:15 1012 29.88 841 24.83 -19.3 -2.8 55 -26.3 -15.3
10:20 1012 29.88 841 24.83 -18.8 -1.9 56 -25.7 -14.2
10:25 1012 29.88 841 24.83 -18.9 -2.1 54 -26 -14.8
10:30 1012 29.88 841 24.83 -18.8 -1.8 57 -25.3 -13.6
10:35 1012 29.88 842 24.86 -18.2 -0.7 55 -25.2 -13.4
10:40 1012 29.88 842 24.86 -18.4 -1.1 54 -25.7 -14.2
10:45 1012 29.88 842 24.86 -18.2 -0.7 53 -25.6 -14.2
10:50 1012 29.88 842 24.86 -17.8 -0 51 -25.6 -14.1
10:55 1012 29.88 842 24.86 -17.8 -0.1 50 -25.8 -14.5
11:00 1012 29.88 842 24.86 -17.9 -0.2 51 -25.8 -14.5
11:05 1012 29.88 842 24.86 -17.7 0.2 50 -25.8 -14.5
11:10 1012 29.88 842 24.86 -17.6 0.3 48 -26.1 -15
11:15 1012 29.88 841 24.83 -17.8 0 51 -25.7 -14.2
11:20 1012 29.88 841 24.83 -17.8 -0.1 49 -26.1 -15
11:25 1012 29.88 841 24.83 -17.2 1 48 -25.9 -14.6
11:30 1012 29.88 841 24.83 -17.3 1 52 -24.9 -12.8
11:35 1012 29.88 841 24.83 -17.3 0.8 55 -24.4 -11.8
11:40 1012 29.88 841 24.83 -17.4 0.6 60 -23.5 -10.2
11:45 1012 29.88 841 24.83 -17.5 0.6 56 -24.2 -11.6
11:50 1012 29.88 841 24.83 -17.1 1.3 59 -23.4 -10.1
11:55 1012 29.88 841 24.83 -16.6 2.1 55 -23.8 -10.8
12:00 1012 29.88 841 24.83 -16.5 2.3 57 -23.1 -9.7
12:05 1012 29.88 841 24.83 -16.7 2 60 -22.7 -8.9
12:10 1012 29.88 841 24.83 -15.6 3.9 53 -23.2 -9.8
12:15 1012 29.88 841 24.83 -17.1 1.3 56 -23.8 -10.8
12:20 1012 29.88 841 24.83 -18.5 -1.3 62 -24.2 -11.5
12:25 1012 29.88 841 24.83 -18 -0.3 61 -23.7 -10.6
12:30 1012 29.88 841 24.83 -16.8 1.8 59 -23 -9.4
12:35 1012 29.88 841 24.83 -16.1 3 55 -23.2 -9.7
12:40 1012 29.88 841 24.83 -16.2 2.9 56 -23 -9.4
12:45 1012 29.88 841 24.83 -16.3 2.7 56 -23.1 -9.7
12:50 1012 29.88 841 24.83 -16.8 1.7 56 -23.7 -10.6
12:55 1012 29.88 841 24.83 -15.6 3.8 50 -23.8 -10.9
13:00 1012 29.88 841 24.83 -15.8 3.7 56 -22.6 -8.7
13:05 1012 29.88 841 24.83 -15.8 3.6 54 -23.2 -9.7
13:10 1012 29.88 841 24.83 -15.5 4.1 54 -22.9 -9.2
13:15 1012 29.88 841 24.83 -16 3.3 57 -22.7 -8.9
13:20 1012 29.88 841 24.83 -16.3 2.8 58 -22.8 -9
13:25 1012 29.88 841 24.83 -15.6 3.9 54 -22.9 -9.2
13:30 1012 29.88 841 24.83 -15.2 4.7 53 -22.7 -8.8
13:35 1012 29.88 841 24.83 -15 5 50 -23.3 -9.9
13:40 1012 29.88 841 24.83 -14.9 5.2 50 -23.3 -9.9
13:45 1012 29.88 841 24.83 -15.5 4 56 -22.5 -8.5
13:50 1012 29.88 841 24.83 -17.4 0.8 61 -23.1 -9.6
13:55 1012 29.88 841 24.83 -16 3.2 55 -23 -9.4
14:00 1012 29.88 841 24.83 -16.4 2.6 55 -23.5 -10.3
14:05 1012 29.88 841 24.83 -15.6 3.9 53 -23.2 -9.7
14:10 1012 29.88 841 24.83 -16 3.1 59 -22.2 -8
14:15 1012 29.88 841 24.83 -16.5 2.3 61 -22.4 -8.4
14:20 1012 29.88 841 24.83 -16.4 2.6 58 -22.7 -8.9
14:25 1012 29.88 841 24.83 -16.7 1.9 61 -22.6 -8.6
14:30 1012 29.88 841 24.83 -16 3.3 54 -23.2 -9.8
14:35 1012 29.88 841 24.83 -15 5 53 -22.6 -8.7
14:40 1012 29.88 841 24.83 -14.7 5.6 51 -22.7 -8.9
14:45 1012 29.88 841 24.83 -14.4 6.1 50 -22.6 -8.7
14:50 1012 29.88 841 24.83 -14.3 6.2 49 -22.8 -9
14:55 1012 29.88 841 24.83 -14.3 6.3 47 -23.3 -9.9
15:00 1012 29.88 841 24.83 -14.8 5.4 51 -22.9 -9.2
15:05 1012 29.88 841 24.83 -14.8 5.4 51 -22.8 -9
15:10 1012 29.88 841 24.83 -15.2 4.6 51 -23.2 -9.7
15:15 1012 29.88 841 24.83 -15.9 3.5 52 -23.6 -10.6
15:20 1012 29.88 841 24.83 -15.3 4.5 54 -22.7 -8.9
15:25 1012 29.88 841 24.83 -15.2 4.6 53 -22.8 -9
15:30 1012 29.88 841 24.83 -15.4 4.3 53 -23 -9.4
15:35 1012 29.88 841 24.83 -14.2 6.4 48 -23.1 -9.6
15:40 1012 29.88 841 24.83 -14.1 6.6 49 -22.8 -9
15:45 1012 29.88 841 24.83 -14.7 5.6 51 -22.7 -8.9
15:50 1012 29.88 841 24.83 -15 4.9 53 -22.5 -8.5
15:55 1012 29.88 841 24.83 -14.8 5.4 50 -23 -9.4
16:00 1012 29.88 841 24.83 -14.7 5.5 50 -23.1 -9.5
16:05 1012 29.88 841 24.83 -14.8 5.4 49 -23.4 -10.1
16:10 1012 29.88 841 24.83 -14.6 5.8 49 -23.2 -9.7
16:15 1012 29.88 841 24.83 -14.9 5.3 49 -23.3 -9.9
16:20 1012 29.88 841 24.83 -15.1 4.8 50 -23.3 -9.9
16:25 1012 29.88 841 24.83 -15.3 4.5 51 -23.4 -10.1
16:30 1012 29.88 841 24.83 -15.5 4 50 -23.7 -10.7
16:35 1012 29.88 841 24.83 -15.2 4.6 49 -23.7 -10.7
16:40 1012 29.88 841 24.83 -15 4.9 47 -24 -11.3
16:45 1012 29.88 842 24.86 -15.4 4.3 48 -24.1 -11.4
16:50 1012 29.88 842 24.86 -15.5 4.1 49 -24.1 -11.3
16:55 1012 29.88 842 24.86 -15.9 3.4 52 -23.7 -10.7
17:00 1012 29.88 842 24.86 -15.5 4.2 48 -24.1 -11.5
17:05 1012 29.88 842 24.86 -16 3.2 51 -24 -11.2
17:10 1012 29.88 842 24.86 -16.1 3.1 51 -24 -11.2
17:15 1012 29.88 842 24.86 -16.4 2.4 53 -23.9 -11
17:20 1012 29.88 842 24.86 -17 1.5 56 -23.8 -10.8
17:25 1012 29.88 842 24.86 -17.3 0.8 57 -23.9 -11.1
17:30 1012 29.88 842 24.86 -17.4 0.7 58 -23.8 -10.9
17:35 1012 29.88 842 24.86 -17.6 0.4 59 -23.8 -10.9
17:40 1012 29.88 841 24.83 -17.6 0.3 59 -23.9 -11
17:45 1012 29.88 841 24.83 -17.7 0.1 59 -23.9 -11
17:50 1012 29.88 841 24.83 -18.3 -0.9 61 -24 -11.3
17:55 1012 29.88 841 24.83 -18.8 -1.8 64 -24.1 -11.4
18:00 1012 29.88 841 24.83 -18.9 -1.9 63 -24.2 -11.6
18:05 1012 29.88 841 24.83 -18.7 -1.7 64 -23.9 -11
18:10 1012 29.88 841 24.83 -18.5 -1.2 63 -23.8 -10.9
18:15 1012 29.88 841 24.83 -18.7 -1.7 64 -24 -11.2
18:20 1012 29.88 842 24.86 -19 -2.3 64 -24.2 -11.6
18:25 1012 29.88 842 24.86 -19 -2.2 65 -24 -11.2
18:30 1013 29.91 842 24.86 -18.9 -2 65 -24 -11.1
18:35 1013 29.91 842 24.86 -18.9 -2 67 -23.6 -10.6
18:40 1013 29.91 842 24.86 -19 -2.2 68 -23.6 -10.4
18:45 1013 29.91 842 24.86 -19.3 -2.8 68 -23.9 -11
18:50 1013 29.91 842 24.86 -19.8 -3.6 69 -24.1 -11.4
18:55 1013 29.91 842 24.86 -19.9 -3.8 69 -24.2 -11.5
19:00 1013 29.91 842 24.86 -19.9 -3.8 69 -24.2 -11.6
19:05 1013 29.91 842 24.86 -20.4 -4.6 71 -24.3 -11.8
19:10 1013 29.91 842 24.86 -20.6 -5.1 70 -24.8 -12.7
19:15 1013 29.91 842 24.86 -20.8 -5.4 69 -25 -13
19:20 1013 29.91 842 24.86 -20.9 -5.7 69 -25.2 -13.3
19:25 1013 29.91 842 24.86 -21.1 -5.9 70 -25.3 -13.5
19:30 1013 29.91 842 24.86 -21 -5.8 69 -25.3 -13.5
19:35 1013 29.91 842 24.86 -21 -5.8 69 -25.2 -13.4
19:40 1013 29.91 842 24.86 -21.1 -6 70 -25.2 -13.3
19:45 1013 29.91 842 24.86 -21.1 -6.1 70 -25.3 -13.5
19:50 1013 29.91 842 24.86 -21.2 -6.1 68 -25.5 -14
19:55 1013 29.91 842 24.86 -21.3 -6.3 69 -25.6 -14.1
20:00 1013 29.91 842 24.86 -21.2 -6.2 69 -25.5 -14
20:05 1013 29.91 842 24.86 -21.3 -6.3 68 -25.7 -14.3
20:10 1013 29.91 842 24.86 -21.4 -6.5 68 -25.8 -14.4
20:15 1013 29.91 842 24.86 -21.5 -6.8 69 -25.8 -14.5
20:20 1013 29.91 842 24.86 -21.7 -7 68 -26.1 -15.1
20:25 1013 29.91 842 24.86 -21.9 -7.4 68 -26.3 -15.3
20:30 1013 29.91 842 24.86 -22 -7.6 68 -26.4 -15.5
20:35 1013 29.91 842 24.86 -22 -7.7 69 -26.3 -15.3
20:40 1013 29.91 842 24.86 -21.9 -7.4 69 -26.1 -15.1
20:45 1013 29.91 842 24.86 -21.7 -7 68 -26.2 -15.1
20:50 1013 29.91 842 24.86 -21.6 -7 68 -26.1 -14.9
20:55 1013 29.91 843 24.89 -21.4 -6.5 67 -26.1 -14.9
21:00 1013 29.91 843 24.89 -21.3 -6.4 67 -25.9 -14.7
21:05 1013 29.91 843 24.89 -21.4 -6.5 66 -26.1 -15
21:10 1013 29.91 843 24.89 -21.4 -6.6 67 -26.1 -15
21:15 1013 29.91 843 24.89 -21.3 -6.3 68 -25.6 -14.1
21:20 1013 29.91 843 24.89 -21.2 -6.1 67 -25.8 -14.4
21:25 1013 29.91 843 24.89 -21.3 -6.4 66 -26.1 -15
21:30 1013 29.91 843 24.89 -21.5 -6.7 66 -26.2 -15.2
21:35 1014 29.94 843 24.89 -21.4 -6.6 68 -25.8 -14.4
21:40 1014 29.94 843 24.89 -21.2 -6.1 66 -26 -14.8
21:45 1014 29.94 843 24.89 -21.2 -6.2 66 -26 -14.8
21:50 1014 29.94 843 24.89 -21.2 -6.2 67 -25.9 -14.6
21:55 1014 29.94 843 24.89 -21.2 -6.1 66 -25.9 -14.7
22:00 1014 29.94 843 24.89 -21 -5.9 67 -25.7 -14.3
22:05 1014 29.94 843 24.89 -20.9 -5.7 66 -25.7 -14.3
22:10 1014 29.94 843 24.89 -20.9 -5.6 65 -25.8 -14.4
22:15 1014 29.94 843 24.89 -20.9 -5.5 66 -25.6 -14.1
22:20 1014 29.94 843 24.89 -20.8 -5.5 66 -25.7 -14.2
22:25 1014 29.94 843 24.89 -20.8 -5.4 65 -25.7 -14.3
22:30 1014 29.94 843 24.89 -20.7 -5.2 65 -25.6 -14
22:35 1014 29.94 843 24.89 -20.7 -5.3 64 -25.8 -14.5
22:40 1014 29.94 843 24.89 -20.9 -5.7 65 -25.8 -14.4
22:45 1014 29.94 843 24.89 -20.9 -5.6 66 -25.8 -14.4
22:50 1014 29.94 843 24.89 -20.9 -5.7 67 -25.6 -14
22:55 1014 29.94 843 24.89 -20.9 -5.6 67 -25.6 -14
23:00 1014 29.94 843 24.89 -20.7 -5.3 67 -25.4 -13.7
23:05 1014 29.94 843 24.89 -20.7 -5.3 66 -25.5 -13.8
23:10 1014 29.94 843 24.89 -20.8 -5.5 66 -25.5 -14
23:15 1014 29.94 843 24.89 -20.8 -5.5 66 -25.6 -14
23:20 1014 29.94 843 24.89 -20.7 -5.3 68 -25.3 -13.5
23:25 1014 29.94 843 24.89 -20.5 -4.9 66 -25.3 -13.5
23:30 1014 29.94 843 24.89 -20.5 -4.9 67 -25.2 -13.3
23:35 1014 29.94 843 24.89 -20.5 -4.8 67 -25.1 -13.1
23:40 1014 29.94 843 24.89 -20.4 -4.7 68 -24.9 -12.8
23:45 1014 29.94 843 24.89 -20.2 -4.4 69 -24.6 -12.2
23:50 1014 29.94 843 24.89 -20.1 -4.2 68 -24.6 -12.3
23:55 1014 29.94 843 24.89 -20.1 -4.2 67 -24.7 -12.5
24:00 1014 29.94 843 24.89 -20.2 -4.4 67 -24.8 -12.7